Terminal Aerodrome Forecast
Issued by NWS Portland, OR

Home | Current Version | Previous Version | Text Only | Print | Product List | Glossary On
Versions: 1 2 3 4 5 6 7 8 9 10 11 12 13 14 15 16 17 18 19 20 21 22 23 24 25 26 27 28 29 30 31 32
000
FTUS46 KPQR 281737
TAFEUG
TAF
KEUG 281737Z 2818/2918 19013KT P6SM -RA SCT020 BKN040 OVC060
     FM282200 20012KT 4SM -RA BR BKN020 OVC040
     FM290500 26010KT 4SM -RA BR BKN020 OVC040
     FM290800 27011KT P6SM -SHRA SCT020 OVC040
     FM291200 25007KT P6SM -SHRASN BKN020 BKN045=

USA.gov is the U.S. government's official web portal to all federal, state and local government web resources and services.